Airport View

Enter AWOS ICAO identifier for current METAR.

ex. KFNL

PASM 212335Z AUTO 11019G25KT 10SM BKN009 OVC014 04/03 A2945 RMK AO2 PK WND 10027/2316 RAE25 CIG 007V012 P0006

22 Sep 2019 00:08

Frequency: 128.7

Other Area AWOS: PAMO - PADM - PAEM - PARS

TAF PABE 212323Z 2200/2224 16018G24KT P6SM -SHRA SCT025 BKN040 TEMPO 2200/2204 16016KT 4SM -SHRA BKN025 OVC035 FM220700 18013KT P6SM SCT025 BKN050 FM221200 17011KT P6SM OVC030